LTAD/ANK METAR and TAF weather

Enter ICAO airport designator
Station Type Date Time Source
LTAD METAR 2021/04/18 00:50 UTC NOAA

LTAD 180050Z VRB03KT 9999 SCT040 BKN100 16/04 Q1017 NOSIG RMK RWY29 24004KT 170V330


Station Type Date Time Source
LTAD Decoded METAR 2021/04/18 00:50 UTC NOAA

Ankara / Etimesgut, Turkey (LTAD) 39-57N 032-41E 806M
Apr 17, 2021 - 08:50 PM EDT / 2021.04.18 0050 UTC
Wind: Variable at 3 MPH (3 KT):0
Visibility: greater than 7 mile(s):0
Sky conditions: mostly cloudy
Temperature: 60 F (16 C)
Dew Point: 39 F (4 C)
Relative Humidity: 44%
Pressure (altimeter): 30.03 in. Hg (1017 hPa)
ob: LTAD 180050Z VRB03KT 9999 SCT040 BKN100 16/04 Q1017 NOSIG RMK RWY29 24004KT 170V330
cycle: 1

Station Type Date Time Source
LTAD TAF UTC NOAA

Error!

Example: see airport list